PWSweather.com
Personal Weather Stations
Station Observations
SPARKSRC
St. Petersburg, FL 33716

St. Petersburg, FL 33716

Lat: 27.876101, Lon: -82.657194

Elevation: 13

Station Type: Zephyr PWS-1000TD

Latest ConditionsUpdated 8:25:02 AM EDT Saturday, Apr 25, 2015
Currently Today's Max Today's Min Today's Average
Temperature 76.6°F24.8°C 78.6°F25.9°C 74.7°F23.7°C 75.8°F24.3°C
Dew Point 71.5°F21.9°C 72.0°F22.2°C 68.4°F20.2°C 69.8°F21.0°C
Winds 9.2 mph SSE14.8 kmh SSE 13.6 mph SE21.9 kmh SE - 7.6 mph 12.2 kmh
Wind Gusts 12.1 mph19.5 kmh 20.6 mph33.2 kmh - -
Humidity 84% 88% 73% 82%
Pressure 29.74 in1007.1 mb 29.79 in1008.8 mb 29.71 in1006.1 mb -
Hour Temp Dew Point Humidity Winds Wind Gusts Pressure Precip Precip Rate Daily Precip Total
08:25 AM 76.6°F24.8°C 71.5°F21.9°C 84% 9.2 mph SSE14.8 kmh SSE 12.1 mph19.5 kmh 29.74 in1007.1 mb 0.00 in0.0 mm 0.00 in0.0 mm 0.00 in0.0 mm
08:20 AM 76.5°F24.7°C 72.0°F22.2°C 86% 4.5 mph SSE7.2 kmh SSE 11.4 mph18.3 kmh 29.75 in1007.5 mb 0.00 in0.0 mm 0.00 in0.0 mm 0.00 in0.0 mm
08:15 AM 76.1°F24.5°C 71.7°F22.1°C 86% 3.8 mph SE6.1 kmh SE 9.8 mph15.8 kmh 29.75 in1007.5 mb 0.00 in0.0 mm 0.00 in0.0 mm 0.00 in0.0 mm
08:10 AM 75.9°F24.4°C 71.5°F21.9°C 86% 5.4 mph SE8.7 kmh SE 9.8 mph15.8 kmh 29.75 in1007.5 mb 0.00 in0.0 mm 0.00 in0.0 mm 0.00 in0.0 mm
08:05 AM 75.7°F24.3°C 71.3°F21.8°C 86% 6.9 mph SE11.1 kmh SE 11.4 mph18.3 kmh 29.75 in1007.5 mb 0.00 in0.0 mm 0.00 in0.0 mm 0.00 in0.0 mm
08:00 AM 75.6°F24.2°C 71.1°F21.7°C 86% 6.0 mph SSE9.7 kmh SSE 12.1 mph19.5 kmh 29.75 in1007.5 mb 0.00 in0.0 mm 0.00 in0.0 mm 0.00 in0.0 mm
07:55 AM 75.4°F24.1°C 71.3°F21.8°C 87% 6.0 mph SSE9.7 kmh SSE 12.1 mph19.5 kmh 29.75 in1007.5 mb 0.00 in0.0 mm 0.00 in0.0 mm 0.00 in0.0 mm
07:50 AM 75.2°F24.0°C 71.1°F21.7°C 87% 6.0 mph SE9.7 kmh SE 11.4 mph18.3 kmh 29.75 in1007.5 mb 0.00 in0.0 mm 0.00 in0.0 mm 0.00 in0.0 mm
07:45 AM 75.2°F24.0°C 71.1°F21.7°C 87% 6.0 mph SE9.7 kmh SE 11.4 mph18.3 kmh 29.74 in1007.1 mb 0.00 in0.0 mm 0.00 in0.0 mm 0.00 in0.0 mm
07:40 AM 75.0°F23.9°C 70.9°F21.6°C 87% 6.9 mph SSE11.1 kmh SSE 13.0 mph20.9 kmh 29.75 in1007.5 mb 0.00 in0.0 mm 0.00 in0.0 mm 0.00 in0.0 mm
07:35 AM 75.0°F23.9°C 70.9°F21.6°C 87% 8.3 mph SSE13.4 kmh SSE 13.0 mph20.9 kmh 29.74 in1007.1 mb 0.00 in0.0 mm 0.00 in0.0 mm 0.00 in0.0 mm
07:30 AM 74.8°F23.8°C 71.1°F21.7°C 88% 5.4 mph SSE8.7 kmh SSE 9.8 mph15.8 kmh 29.74 in1007.1 mb 0.00 in0.0 mm 0.00 in0.0 mm 0.00 in0.0 mm
07:25 AM 74.8°F23.8°C 71.1°F21.7°C 88% 6.0 mph SSE9.7 kmh SSE 10.7 mph17.2 kmh 29.74 in1007.1 mb 0.00 in0.0 mm 0.00 in0.0 mm 0.00 in0.0 mm
07:20 AM 74.8°F23.8°C 71.1°F21.7°C 88% 6.0 mph SSE9.7 kmh SSE 10.7 mph17.2 kmh 29.74 in1007.1 mb 0.00 in0.0 mm 0.00 in0.0 mm 0.00 in0.0 mm
07:15 AM 74.8°F23.8°C 71.1°F21.7°C 88% 3.8 mph SE6.1 kmh SE 10.7 mph17.2 kmh 29.74 in1007.1 mb 0.00 in0.0 mm 0.00 in0.0 mm 0.00 in0.0 mm
07:10 AM 74.7°F23.7°C 70.9°F21.6°C 88% 4.5 mph SE7.2 kmh SE 8.3 mph13.4 kmh 29.75 in1007.5 mb 0.00 in0.0 mm 0.00 in0.0 mm 0.00 in0.0 mm
07:05 AM 74.7°F23.7°C 70.9°F21.6°C 88% 3.8 mph SE6.1 kmh SE 8.3 mph13.4 kmh 29.73 in1006.8 mb 0.00 in0.0 mm 0.00 in0.0 mm 0.00 in0.0 mm
07:00 AM 74.7°F23.7°C 70.9°F21.6°C 88% 3.1 mph SE5.0 kmh SE 9.2 mph14.8 kmh 29.74 in1007.1 mb 0.00 in0.0 mm 0.00 in0.0 mm 0.00 in0.0 mm
06:55 AM 74.7°F23.7°C 70.9°F21.6°C 88% 3.8 mph SE6.1 kmh SE 12.1 mph19.5 kmh 29.74 in1007.1 mb 0.00 in0.0 mm 0.00 in0.0 mm 0.00 in0.0 mm
06:50 AM 74.7°F23.7°C 70.9°F21.6°C 88% 4.5 mph SE7.2 kmh SE 12.1 mph19.5 kmh 29.74 in1007.1 mb 0.00 in0.0 mm 0.00 in0.0 mm 0.00 in0.0 mm
06:45 AM 74.7°F23.7°C 70.9°F21.6°C 88% 5.4 mph SE8.7 kmh SE 9.2 mph14.8 kmh 29.73 in1006.8 mb 0.00 in0.0 mm 0.00 in0.0 mm 0.00 in0.0 mm
06:40 AM 74.7°F23.7°C 70.9°F21.6°C 88% 3.8 mph SE6.1 kmh SE 8.3 mph13.4 kmh 29.73 in1006.8 mb 0.00 in0.0 mm 0.00 in0.0 mm 0.00 in0.0 mm
06:35 AM 74.8°F23.8°C 71.1°F21.7°C 88% 5.4 mph SE8.7 kmh SE 10.7 mph17.2 kmh 29.73 in1006.8 mb 0.00 in0.0 mm 0.00 in0.0 mm 0.00 in0.0 mm
06:30 AM 74.7°F23.7°C 70.6°F21.4°C 87% 3.8 mph SE6.1 kmh SE 10.7 mph17.2 kmh 29.73 in1006.8 mb 0.00 in0.0 mm 0.00 in0.0 mm 0.00 in0.0 mm
06:25 AM 74.7°F23.7°C 70.6°F21.4°C 87% 6.9 mph SE11.1 kmh SE 10.7 mph17.2 kmh 29.72 in1006.4 mb 0.00 in0.0 mm 0.00 in0.0 mm 0.00 in0.0 mm
06:20 AM 74.8°F23.8°C 70.8°F21.6°C 87% 4.5 mph SE7.2 kmh SE 9.8 mph15.8 kmh 29.72 in1006.4 mb 0.00 in0.0 mm 0.00 in0.0 mm 0.00 in0.0 mm
06:15 AM 75.0°F23.9°C 70.9°F21.6°C 87% 6.0 mph SE9.7 kmh SE 9.2 mph14.8 kmh 29.72 in1006.4 mb 0.00 in0.0 mm 0.00 in0.0 mm 0.00 in0.0 mm
06:10 AM 74.8°F23.8°C 70.8°F21.6°C 87% 3.8 mph SSE6.1 kmh SSE 9.2 mph14.8 kmh 29.72 in1006.4 mb 0.00 in0.0 mm 0.00 in0.0 mm 0.00 in0.0 mm
06:05 AM 75.0°F23.9°C 70.9°F21.6°C 87% 5.4 mph SSE8.7 kmh SSE 9.2 mph14.8 kmh 29.72 in1006.4 mb 0.00 in0.0 mm 0.00 in0.0 mm 0.00 in0.0 mm
06:00 AM 75.0°F23.9°C 70.9°F21.6°C 87% 3.1 mph SE5.0 kmh SE 13.0 mph20.9 kmh 29.72 in1006.4 mb 0.00 in0.0 mm 0.00 in0.0 mm 0.00 in0.0 mm
05:55 AM 75.0°F23.9°C 70.6°F21.4°C 86% 6.0 mph SE9.7 kmh SE 13.0 mph20.9 kmh 29.72 in1006.4 mb 0.00 in0.0 mm 0.00 in0.0 mm 0.00 in0.0 mm
05:50 AM 74.8°F23.8°C 70.4°F21.3°C 86% 7.6 mph SE12.2 kmh SE 13.0 mph20.9 kmh 29.71 in1006.1 mb 0.00 in0.0 mm 0.00 in0.0 mm 0.00 in0.0 mm
05:45 AM 74.8°F23.8°C 70.4°F21.3°C 86% 7.6 mph SE12.2 kmh SE 15.2 mph24.5 kmh 29.72 in1006.4 mb 0.00 in0.0 mm 0.00 in0.0 mm 0.00 in0.0 mm
05:40 AM 74.8°F23.8°C 70.4°F21.3°C 86% 4.5 mph SE7.2 kmh SE 15.2 mph24.5 kmh 29.71 in1006.1 mb 0.00 in0.0 mm 0.00 in0.0 mm 0.00 in0.0 mm
05:35 AM 74.8°F23.8°C 70.1°F21.2°C 85% 5.4 mph SE8.7 kmh SE 11.4 mph18.3 kmh 29.71 in1006.1 mb 0.00 in0.0 mm 0.00 in0.0 mm 0.00 in0.0 mm
05:30 AM 75.0°F23.9°C 70.2°F21.2°C 85% 6.0 mph SE9.7 kmh SE 13.0 mph20.9 kmh 29.72 in1006.4 mb 0.00 in0.0 mm 0.00 in0.0 mm 0.00 in0.0 mm
05:25 AM 75.0°F23.9°C 70.2°F21.2°C 85% 9.2 mph SE14.8 kmh SE 13.6 mph21.9 kmh 29.72 in1006.4 mb 0.00 in0.0 mm 0.00 in0.0 mm 0.00 in0.0 mm
05:20 AM 75.0°F23.9°C 70.2°F21.2°C 85% 8.3 mph SE13.4 kmh SE 13.6 mph21.9 kmh 29.71 in1006.1 mb 0.00 in0.0 mm 0.00 in0.0 mm 0.00 in0.0 mm
05:15 AM 75.0°F23.9°C 70.2°F21.2°C 85% 6.0 mph SE9.7 kmh SE 9.8 mph15.8 kmh 29.71 in1006.1 mb 0.00 in0.0 mm 0.00 in0.0 mm 0.00 in0.0 mm
05:10 AM 75.2°F24.0°C 70.1°F21.2°C 84% 4.5 mph SSE7.2 kmh SSE 13.0 mph20.9 kmh 29.72 in1006.4 mb 0.00 in0.0 mm 0.00 in0.0 mm 0.00 in0.0 mm
05:05 AM 75.0°F23.9°C 69.9°F21.1°C 84% 6.9 mph SE11.1 kmh SE 14.5 mph23.3 kmh 29.71 in1006.1 mb 0.00 in0.0 mm 0.00 in0.0 mm 0.00 in0.0 mm
05:00 AM 75.2°F24.0°C 70.1°F21.2°C 84% 6.9 mph SE11.1 kmh SE 14.5 mph23.3 kmh 29.71 in1006.1 mb 0.00 in0.0 mm 0.00 in0.0 mm 0.00 in0.0 mm
04:55 AM 75.4°F24.1°C 69.9°F21.1°C 83% 7.6 mph SE12.2 kmh SE 16.8 mph27.0 kmh 29.71 in1006.1 mb 0.00 in0.0 mm 0.00 in0.0 mm 0.00 in0.0 mm
04:50 AM 75.4°F24.1°C 69.9°F21.1°C 83% 5.4 mph SE8.7 kmh SE 16.8 mph27.0 kmh 29.71 in1006.1 mb 0.00 in0.0 mm 0.00 in0.0 mm 0.00 in0.0 mm
04:45 AM 75.2°F24.0°C 69.7°F20.9°C 83% 11.4 mph SE18.3 kmh SE 15.2 mph24.5 kmh 29.71 in1006.1 mb 0.00 in0.0 mm 0.00 in0.0 mm 0.00 in0.0 mm
04:40 AM 75.2°F24.0°C 69.7°F20.9°C 83% 8.3 mph SE13.4 kmh SE 14.5 mph23.3 kmh 29.71 in1006.1 mb 0.00 in0.0 mm 0.00 in0.0 mm 0.00 in0.0 mm
04:35 AM 75.4°F24.1°C 69.5°F20.8°C 82% 9.2 mph SE14.8 kmh SE 13.6 mph21.9 kmh 29.71 in1006.1 mb 0.00 in0.0 mm 0.00 in0.0 mm 0.00 in0.0 mm
04:30 AM 75.2°F24.0°C 69.7°F20.9°C 83% 7.6 mph SE12.2 kmh SE 13.6 mph21.9 kmh 29.72 in1006.4 mb 0.00 in0.0 mm 0.00 in0.0 mm 0.00 in0.0 mm
04:25 AM 75.0°F23.9°C 69.5°F20.8°C 83% 6.0 mph SE9.7 kmh SE 12.1 mph19.5 kmh 29.72 in1006.4 mb 0.00 in0.0 mm 0.00 in0.0 mm 0.00 in0.0 mm
04:20 AM 75.2°F24.0°C 69.4°F20.8°C 82% 9.2 mph SE14.8 kmh SE 13.6 mph21.9 kmh 29.72 in1006.4 mb 0.00 in0.0 mm 0.00 in0.0 mm 0.00 in0.0 mm
04:15 AM 75.2°F24.0°C 69.4°F20.8°C 82% 6.9 mph SE11.1 kmh SE 13.6 mph21.9 kmh 29.72 in1006.4 mb 0.00 in0.0 mm 0.00 in0.0 mm 0.00 in0.0 mm
04:10 AM 75.2°F24.0°C 69.4°F20.8°C 82% 9.8 mph SE15.8 kmh SE 13.6 mph21.9 kmh 29.72 in1006.4 mb 0.00 in0.0 mm 0.00 in0.0 mm 0.00 in0.0 mm
04:05 AM 75.2°F24.0°C 69.4°F20.8°C 82% 6.0 mph SE9.7 kmh SE 13.6 mph21.9 kmh 29.72 in1006.4 mb 0.00 in0.0 mm 0.00 in0.0 mm 0.00 in0.0 mm
04:00 AM 75.4°F24.1°C 69.2°F20.7°C 81% 8.3 mph SE13.4 kmh SE 16.8 mph27.0 kmh 29.71 in1006.1 mb 0.00 in0.0 mm 0.00 in0.0 mm 0.00 in0.0 mm
03:55 AM 75.4°F24.1°C 69.2°F20.7°C 81% 10.7 mph SE17.2 kmh SE 16.8 mph27.0 kmh 29.71 in1006.1 mb 0.00 in0.0 mm 0.00 in0.0 mm 0.00 in0.0 mm
03:50 AM 75.4°F24.1°C 69.2°F20.7°C 81% 6.9 mph SE11.1 kmh SE 15.2 mph24.5 kmh 29.71 in1006.1 mb 0.00 in0.0 mm 0.00 in0.0 mm 0.00 in0.0 mm
03:45 AM 75.4°F24.1°C 69.2°F20.7°C 81% 7.6 mph SE12.2 kmh SE 15.2 mph24.5 kmh 29.72 in1006.4 mb 0.00 in0.0 mm 0.00 in0.0 mm 0.00 in0.0 mm
03:40 AM 75.6°F24.2°C 69.4°F20.8°C 81% 6.9 mph SE11.1 kmh SE 15.2 mph24.5 kmh 29.73 in1006.8 mb 0.00 in0.0 mm 0.00 in0.0 mm 0.00 in0.0 mm
03:35 AM 75.4°F24.1°C 69.2°F20.7°C 81% 5.4 mph SE8.7 kmh SE 15.2 mph24.5 kmh 29.73 in1006.8 mb 0.00 in0.0 mm 0.00 in0.0 mm 0.00 in0.0 mm
03:30 AM 75.6°F24.2°C 69.0°F20.6°C 80% 9.8 mph SE15.8 kmh SE 14.5 mph23.3 kmh 29.73 in1006.8 mb 0.00 in0.0 mm 0.00 in0.0 mm 0.00 in0.0 mm
03:25 AM 75.6°F24.2°C 69.0°F20.6°C 80% 7.6 mph SE12.2 kmh SE 14.5 mph23.3 kmh 29.73 in1006.8 mb 0.00 in0.0 mm 0.00 in0.0 mm 0.00 in0.0 mm
03:20 AM 75.7°F24.3°C 69.2°F20.7°C 80% 7.6 mph SE12.2 kmh SE 15.2 mph24.5 kmh 29.74 in1007.1 mb 0.00 in0.0 mm 0.00 in0.0 mm 0.00 in0.0 mm
03:15 AM 75.7°F24.3°C 68.8°F20.4°C 79% 5.4 mph SE8.7 kmh SE 15.9 mph25.6 kmh 29.74 in1007.1 mb 0.00 in0.0 mm 0.00 in0.0 mm 0.00 in0.0 mm
03:10 AM 75.7°F24.3°C 68.8°F20.4°C 79% 7.6 mph SE12.2 kmh SE 17.4 mph28.0 kmh 29.74 in1007.1 mb 0.00 in0.0 mm 0.00 in0.0 mm 0.00 in0.0 mm
03:05 AM 75.9°F24.4°C 69.0°F20.6°C 79% 9.2 mph SE14.8 kmh SE 17.4 mph28.0 kmh 29.75 in1007.5 mb 0.00 in0.0 mm 0.00 in0.0 mm 0.00 in0.0 mm
03:00 AM 75.7°F24.3°C 68.8°F20.4°C 79% 6.9 mph SE11.1 kmh SE 15.9 mph25.6 kmh 29.75 in1007.5 mb 0.00 in0.0 mm 0.00 in0.0 mm 0.00 in0.0 mm
02:55 AM 75.9°F24.4°C 69.0°F20.6°C 79% 9.8 mph SE15.8 kmh SE 15.9 mph25.6 kmh 29.76 in1007.8 mb 0.00 in0.0 mm 0.00 in0.0 mm 0.00 in0.0 mm
02:50 AM 75.7°F24.3°C 68.4°F20.2°C 78% 10.7 mph SE17.2 kmh SE 15.9 mph25.6 kmh 29.75 in1007.5 mb 0.00 in0.0 mm 0.00 in0.0 mm 0.00 in0.0 mm
02:45 AM 75.9°F24.4°C 68.6°F20.3°C 78% 10.7 mph SE17.2 kmh SE 15.9 mph25.6 kmh 29.75 in1007.5 mb 0.00 in0.0 mm 0.00 in0.0 mm 0.00 in0.0 mm
02:40 AM 75.9°F24.4°C 69.0°F20.6°C 79% 7.6 mph SE12.2 kmh SE 13.6 mph21.9 kmh 29.74 in1007.1 mb 0.00 in0.0 mm 0.00 in0.0 mm 0.00 in0.0 mm
02:35 AM 75.9°F24.4°C 68.6°F20.3°C 78% 10.7 mph SE17.2 kmh SE 15.2 mph24.5 kmh 29.75 in1007.5 mb 0.00 in0.0 mm 0.00 in0.0 mm 0.00 in0.0 mm
02:30 AM 75.9°F24.4°C 68.6°F20.3°C 78% 9.2 mph SE14.8 kmh SE 15.2 mph24.5 kmh 29.75 in1007.5 mb 0.00 in0.0 mm 0.00 in0.0 mm 0.00 in0.0 mm
02:25 AM 75.9°F24.4°C 68.6°F20.3°C 78% 10.7 mph SE17.2 kmh SE 15.2 mph24.5 kmh 29.76 in1007.8 mb 0.00 in0.0 mm 0.00 in0.0 mm 0.00 in0.0 mm
02:20 AM 76.1°F24.5°C 68.8°F20.4°C 78% 9.2 mph SE14.8 kmh SE 15.9 mph25.6 kmh 29.76 in1007.8 mb 0.00 in0.0 mm 0.00 in0.0 mm 0.00 in0.0 mm
02:15 AM 76.1°F24.5°C 68.8°F20.4°C 78% 11.4 mph SE18.3 kmh SE 15.9 mph25.6 kmh 29.77 in1008.1 mb 0.00 in0.0 mm 0.00 in0.0 mm 0.00 in0.0 mm
02:10 AM 76.3°F24.6°C 69.0°F20.6°C 78% 9.8 mph SE15.8 kmh SE 15.2 mph24.5 kmh 29.77 in1008.1 mb 0.00 in0.0 mm 0.00 in0.0 mm 0.00 in0.0 mm
02:05 AM 76.3°F24.6°C 69.0°F20.6°C 78% 8.3 mph SE13.4 kmh SE 15.2 mph24.5 kmh 29.77 in1008.1 mb 0.00 in0.0 mm 0.00 in0.0 mm 0.00 in0.0 mm
02:00 AM 76.5°F24.7°C 69.1°F20.6°C 78% 6.0 mph SE9.7 kmh SE 14.5 mph23.3 kmh 29.77 in1008.1 mb 0.00 in0.0 mm 0.00 in0.0 mm 0.00 in0.0 mm
01:55 AM 76.5°F24.7°C 68.8°F20.4°C 77% 8.3 mph SE13.4 kmh SE 13.0 mph20.9 kmh 29.77 in1008.1 mb 0.00 in0.0 mm 0.00 in0.0 mm 0.00 in0.0 mm
01:50 AM 76.5°F24.7°C 69.1°F20.6°C 78% 6.9 mph SE11.1 kmh SE 13.6 mph21.9 kmh 29.78 in1008.5 mb 0.00 in0.0 mm 0.00 in0.0 mm 0.00 in0.0 mm
01:45 AM 76.3°F24.6°C 68.6°F20.3°C 77% 8.3 mph SE13.4 kmh SE 15.2 mph24.5 kmh 29.78 in1008.5 mb 0.00 in0.0 mm 0.00 in0.0 mm 0.00 in0.0 mm
01:40 AM 76.6°F24.8°C 68.9°F20.5°C 77% 6.9 mph SE11.1 kmh SE 15.2 mph24.5 kmh 29.78 in1008.5 mb 0.00 in0.0 mm 0.00 in0.0 mm 0.00 in0.0 mm
01:35 AM 76.6°F24.8°C 68.9°F20.5°C 77% 6.9 mph SE11.1 kmh SE 19.0 mph30.6 kmh 29.78 in1008.5 mb 0.00 in0.0 mm 0.00 in0.0 mm 0.00 in0.0 mm
01:30 AM 76.8°F24.9°C 68.7°F20.4°C 76% 8.3 mph SE13.4 kmh SE 19.0 mph30.6 kmh 29.78 in1008.5 mb 0.00 in0.0 mm 0.00 in0.0 mm 0.00 in0.0 mm
01:25 AM 77.0°F25.0°C 68.9°F20.5°C 76% 13.0 mph SE20.9 kmh SE 19.0 mph30.6 kmh 29.78 in1008.5 mb 0.00 in0.0 mm 0.00 in0.0 mm 0.00 in0.0 mm
01:20 AM 77.2°F25.1°C 69.1°F20.6°C 76% 10.7 mph SE17.2 kmh SE 20.6 mph33.2 kmh 29.78 in1008.5 mb 0.00 in0.0 mm 0.00 in0.0 mm 0.00 in0.0 mm
01:15 AM 77.2°F25.1°C 69.1°F20.6°C 76% 11.4 mph SE18.3 kmh SE 20.6 mph33.2 kmh 29.78 in1008.5 mb 0.00 in0.0 mm 0.00 in0.0 mm 0.00 in0.0 mm
01:10 AM 77.2°F25.1°C 68.7°F20.4°C 75% 13.6 mph SE21.9 kmh SE 20.6 mph33.2 kmh 29.78 in1008.5 mb 0.00 in0.0 mm 0.00 in0.0 mm 0.00 in0.0 mm
01:05 AM 77.4°F25.2°C 68.9°F20.5°C 75% 12.1 mph SE19.5 kmh SE 18.3 mph29.5 kmh 29.78 in1008.5 mb 0.00 in0.0 mm 0.00 in0.0 mm 0.00 in0.0 mm
01:00 AM 77.4°F25.2°C 68.9°F20.5°C 75% 9.8 mph SE15.8 kmh SE 18.3 mph29.5 kmh 29.79 in1008.8 mb 0.00 in0.0 mm 0.00 in0.0 mm 0.00 in0.0 mm
12:55 AM 77.4°F25.2°C 68.9°F20.5°C 75% 9.8 mph SE15.8 kmh SE 14.5 mph23.3 kmh 29.78 in1008.5 mb 0.00 in0.0 mm 0.00 in0.0 mm 0.00 in0.0 mm
12:50 AM 77.5°F25.3°C 69.0°F20.6°C 75% 7.6 mph SE12.2 kmh SE 17.4 mph28.0 kmh 29.79 in1008.8 mb 0.00 in0.0 mm 0.00 in0.0 mm 0.00 in0.0 mm
12:45 AM 77.7°F25.4°C 68.8°F20.4°C 74% 9.2 mph SE14.8 kmh SE 19.7 mph31.7 kmh 29.79 in1008.8 mb 0.00 in0.0 mm 0.00 in0.0 mm 0.00 in0.0 mm
12:40 AM 77.9°F25.5°C 69.0°F20.6°C 74% 13.6 mph SE21.9 kmh SE 19.7 mph31.7 kmh 29.78 in1008.5 mb 0.00 in0.0 mm 0.00 in0.0 mm 0.00 in0.0 mm
12:35 AM 78.1°F25.6°C 69.6°F20.9°C 75% 10.7 mph ESE17.2 kmh ESE 17.4 mph28.0 kmh 29.78 in1008.5 mb 0.00 in0.0 mm 0.00 in0.0 mm 0.00 in0.0 mm
12:30 AM 78.1°F25.6°C 69.2°F20.7°C 74% 12.1 mph SE19.5 kmh SE 19.0 mph30.6 kmh 29.79 in1008.8 mb 0.00 in0.0 mm 0.00 in0.0 mm 0.00 in0.0 mm
12:25 AM 78.3°F25.7°C 69.3°F20.7°C 74% 9.2 mph SE14.8 kmh SE 19.0 mph30.6 kmh 29.79 in1008.8 mb 0.00 in0.0 mm 0.00 in0.0 mm 0.00 in0.0 mm
12:20 AM 78.3°F25.7°C 69.3°F20.7°C 74% 10.7 mph SE17.2 kmh SE 18.3 mph29.5 kmh 29.79 in1008.8 mb 0.00 in0.0 mm 0.00 in0.0 mm 0.00 in0.0 mm
12:15 AM 78.4°F25.8°C 69.5°F20.8°C 74% 8.3 mph SE13.4 kmh SE 18.3 mph29.5 kmh 29.79 in1008.8 mb 0.00 in0.0 mm 0.00 in0.0 mm 0.00 in0.0 mm
12:10 AM 78.6°F25.9°C 69.7°F20.9°C 74% 12.1 mph SE19.5 kmh SE 18.3 mph29.5 kmh 29.79 in1008.8 mb 0.00 in0.0 mm 0.00 in0.0 mm 0.00 in0.0 mm
12:05 AM 78.6°F25.9°C 69.3°F20.7°C 73% 10.7 mph SE17.2 kmh SE 15.9 mph25.6 kmh 29.78 in1008.5 mb 0.00 in0.0 mm 0.00 in0.0 mm 0.00 in0.0 mm
12:00 AM 78.6°F25.9°C 69.3°F20.7°C 73% 9.8 mph ESE15.8 kmh ESE 15.9 mph25.6 kmh 29.78 in1008.5 mb 0.00 in0.0 mm 0.00 in0.0 mm 0.00 in0.0 mm